createdAt,value
2022-07-31T00:00:35.509Z,100081.31
2022-07-31T00:03:03.249Z,100074.41
2022-07-31T00:05:31.275Z,100075.59
2022-07-31T00:07:59.401Z,100069.72
2022-07-31T00:10:27.113Z,100070.09
2022-07-31T00:12:54.781Z,100070.25
2022-07-31T00:15:22.505Z,100065.03
2022-07-31T00:17:50.678Z,100066.44
2022-07-31T00:20:18.557Z,100064.94
2022-07-31T00:22:46.258Z,100058.00
2022-07-31T00:25:14.094Z,100065.47
2022-07-31T00:27:42.142Z,100060.41
2022-07-31T00:30:10.084Z,100057.22
2022-07-31T00:32:37.772Z,100062.53
2022-07-31T00:35:06.055Z,100057.19
2022-07-31T00:37:33.960Z,100058.94
2022-07-31T00:40:01.739Z,100056.94
2022-07-31T00:42:29.363Z,100057.66
2022-07-31T00:44:57.446Z,100057.56
2022-07-31T00:47:27.483Z,100045.78
2022-07-31T00:49:57.472Z,100045.63
2022-07-31T00:52:25.406Z,100038.88
2022-07-31T00:54:53.653Z,100041.09
2022-07-31T00:57:21.420Z,100039.97
2022-07-31T00:59:49.182Z,100034.91
2022-07-31T01:02:17.019Z,100044.38
2022-07-31T01:04:45.906Z,100039.34
2022-07-31T01:07:14.490Z,100032.59
2022-07-31T01:09:42.766Z,100043.59
2022-07-31T01:12:10.437Z,100039.41
2022-07-31T01:14:38.210Z,100035.34
2022-07-31T01:17:07.376Z,100038.59
2022-07-31T01:19:37.961Z,100038.09
2022-07-31T01:22:33.338Z,100034.41
2022-07-31T01:24:58.393Z,100034.47
2022-07-31T01:27:26.069Z,100036.84
2022-07-31T01:29:54.955Z,100039.25
2022-07-31T01:32:27.467Z,100031.66
2022-07-31T01:34:55.597Z,100028.63
2022-07-31T01:37:23.809Z,100031.84
2022-07-31T01:39:51.625Z,100035.88
2022-07-31T01:42:19.262Z,100039.97
2022-07-31T01:44:46.939Z,100031.38
2022-07-31T01:47:15.043Z,100025.63
2022-07-31T01:49:42.741Z,100033.22
2022-07-31T01:52:10.427Z,100030.03
2022-07-31T01:54:38.308Z,100031.56
2022-07-31T01:57:06.487Z,100032.09
2022-07-31T01:59:34.187Z,100029.22
2022-07-31T02:02:03.597Z,100024.53
2022-07-31T02:04:33.368Z,100029.75
2022-07-31T02:07:01.393Z,100033.31
2022-07-31T02:09:29.021Z,100023.38
2022-07-31T02:11:56.780Z,100022.38
2022-07-31T02:14:24.509Z,100028.28
2022-07-31T02:16:52.720Z,100014.47
2022-07-31T02:19:20.372Z,100011.41
2022-07-31T02:21:51.109Z,100018.13
2022-07-31T02:24:18.846Z,100016.13
2022-07-31T02:26:46.578Z,100007.53
2022-07-31T02:29:19.352Z,100013.09
2022-07-31T02:31:48.536Z,100010.72
2022-07-31T02:34:30.509Z,100010.91
2022-07-31T02:36:58.603Z,100006.69
2022-07-31T02:39:30.311Z,100007.69
2022-07-31T02:42:01.677Z,100005.34
2022-07-31T02:44:29.816Z,100011.72
2022-07-31T02:46:58.272Z,100007.34
2022-07-31T02:49:25.990Z,100012.72
2022-07-31T02:51:53.669Z,100011.03
2022-07-31T02:54:21.349Z,99999.59
2022-07-31T02:56:48.973Z,100005.31
2022-07-31T02:59:16.716Z,100003.13
2022-07-31T03:01:44.441Z,99996.53
2022-07-31T03:04:12.499Z,99997.72
2022-07-31T03:06:40.839Z,99993.69
2022-07-31T03:09:08.471Z,99990.31
2022-07-31T03:11:36.255Z,99991.50
2022-07-31T03:14:03.928Z,99981.88
2022-07-31T03:16:31.989Z,99978.53
2022-07-31T03:18:59.904Z,99981.53
2022-07-31T03:21:27.633Z,99981.03
2022-07-31T03:23:55.567Z,99976.81
2022-07-31T03:26:24.680Z,99980.50
2022-07-31T03:28:52.432Z,99979.84
2022-07-31T03:31:20.159Z,99978.81
2022-07-31T03:33:47.803Z,99980.69
2022-07-31T03:36:15.524Z,99987.75
2022-07-31T03:38:47.573Z,99977.81
2022-07-31T03:41:18.366Z,99983.91
2022-07-31T03:43:47.912Z,99981.88
2022-07-31T03:46:15.852Z,99981.53
2022-07-31T03:48:43.553Z,99977.50
2022-07-31T03:51:11.229Z,99977.16
2022-07-31T03:53:39.811Z,99974.84
2022-07-31T03:56:07.522Z,99977.84
2022-07-31T03:58:36.738Z,99977.19
2022-07-31T04:01:10.328Z,99974.69
2022-07-31T04:03:39.901Z,99975.00
2022-07-31T04:06:07.827Z,99964.56
2022-07-31T04:08:35.777Z,99969.28
2022-07-31T04:11:03.469Z,99967.59
2022-07-31T04:13:31.190Z,99965.22
2022-07-31T04:15:58.795Z,99966.41
2022-07-31T04:18:26.949Z,99967.63
2022-07-31T04:20:54.616Z,99969.78
2022-07-31T04:23:22.335Z,99979.06
2022-07-31T04:26:00.199Z,99970.44
2022-07-31T04:28:30.179Z,99976.84
2022-07-31T04:30:57.791Z,99971.59
2022-07-31T04:33:25.466Z,99964.50
2022-07-31T04:35:53.091Z,99958.25
2022-07-31T04:38:22.119Z,99957.03
2022-07-31T04:40:49.807Z,99958.69
2022-07-31T04:43:18.186Z,99948.88
2022-07-31T04:45:45.979Z,99948.16
2022-07-31T04:48:14.201Z,99940.72
2022-07-31T04:50:41.895Z,99951.00
2022-07-31T04:53:09.567Z,99959.75
2022-07-31T04:55:37.175Z,99965.84
2022-07-31T04:58:05.196Z,99969.06
2022-07-31T05:00:32.951Z,99961.94
2022-07-31T05:03:00.636Z,99957.47
2022-07-31T05:05:28.296Z,99959.47
2022-07-31T05:07:56.951Z,99960.44
2022-07-31T05:10:42.218Z,99957.41
2022-07-31T05:13:09.882Z,99967.47
2022-07-31T05:15:38.220Z,99969.00
2022-07-31T05:18:07.825Z,99973.03
2022-07-31T05:20:35.471Z,99958.34
2022-07-31T05:23:03.210Z,99953.59
2022-07-31T05:25:34.868Z,99962.16
2022-07-31T05:28:02.481Z,99960.44
2022-07-31T05:30:30.874Z,99970.63
2022-07-31T05:32:58.710Z,99962.81
2022-07-31T05:35:26.434Z,99961.97
2022-07-31T05:37:54.482Z,99970.31
2022-07-31T05:40:22.120Z,99973.25
2022-07-31T05:42:49.841Z,99967.38
2022-07-31T05:45:17.815Z,99962.34
2022-07-31T05:47:45.971Z,99972.53
2022-07-31T05:50:14.587Z,99955.47
2022-07-31T05:52:42.872Z,99970.88
2022-07-31T05:55:10.502Z,99968.53
2022-07-31T05:57:38.658Z,99968.22
2022-07-31T06:00:06.404Z,99966.25
2022-07-31T06:02:34.083Z,99957.38
2022-07-31T06:05:01.849Z,99962.00
2022-07-31T06:07:30.551Z,99964.16
2022-07-31T06:09:58.215Z,99956.69
2022-07-31T06:12:25.894Z,99953.59
2022-07-31T06:14:53.563Z,99959.28
2022-07-31T06:17:21.507Z,99959.19
2022-07-31T06:19:50.185Z,99961.78
2022-07-31T06:22:17.967Z,99953.50
2022-07-31T06:24:45.695Z,99966.31
2022-07-31T06:27:33.484Z,99946.31
2022-07-31T06:30:01.824Z,99950.78
2022-07-31T06:32:29.452Z,99946.63
2022-07-31T06:34:57.207Z,99943.56
2022-07-31T06:37:26.636Z,99941.06
2022-07-31T06:39:55.636Z,99937.97
2022-07-31T06:42:24.226Z,99943.00
2022-07-31T06:44:51.966Z,99933.63
2022-07-31T06:47:20.067Z,99943.13
2022-07-31T06:49:47.773Z,99941.78
2022-07-31T06:52:16.175Z,99937.28
2022-07-31T06:54:44.325Z,99945.41
2022-07-31T06:57:12.695Z,99938.66
2022-07-31T06:59:40.898Z,99930.97
2022-07-31T07:02:08.769Z,99929.16
2022-07-31T07:04:56.471Z,99924.78
2022-07-31T07:07:24.334Z,99919.34
2022-07-31T07:09:59.292Z,99916.03
2022-07-31T07:12:27.031Z,99925.06
2022-07-31T07:14:56.125Z,99921.50
2022-07-31T07:17:27.238Z,99926.31
2022-07-31T07:19:58.990Z,99920.25
2022-07-31T07:22:31.111Z,99920.28
2022-07-31T07:24:59.696Z,99925.72
2022-07-31T07:27:27.723Z,99921.72
2022-07-31T07:29:55.471Z,99920.69
2022-07-31T07:32:23.137Z,99920.88
2022-07-31T07:34:59.640Z,99925.44
2022-07-31T07:37:28.584Z,99918.53
2022-07-31T07:39:56.274Z,99917.06
2022-07-31T07:42:24.016Z,99916.44
2022-07-31T07:44:51.993Z,99916.44
2022-07-31T07:47:19.600Z,99910.44
2022-07-31T07:49:47.294Z,99906.88
2022-07-31T07:52:15.300Z,99908.75
2022-07-31T07:54:44.182Z,99904.56
2022-07-31T07:57:11.805Z,99906.25
2022-07-31T07:59:39.638Z,99896.19
2022-07-31T08:02:07.467Z,99889.06
2022-07-31T08:04:35.336Z,99894.50
2022-07-31T08:07:05.123Z,99883.00
2022-07-31T08:09:32.817Z,99875.22
2022-07-31T08:12:00.553Z,99880.66
2022-07-31T08:14:28.376Z,99881.91
2022-07-31T08:16:56.349Z,99885.25
2022-07-31T08:19:25.143Z,99883.56
2022-07-31T08:21:52.932Z,99877.28
2022-07-31T08:24:20.665Z,99873.53
2022-07-31T08:27:09.894Z,99876.88
2022-07-31T08:29:38.891Z,99880.63
2022-07-31T08:32:10.540Z,99877.66
2022-07-31T08:34:41.989Z,99880.53
2022-07-31T08:37:52.338Z,99872.53
2022-07-31T08:39:58.326Z,99876.47
2022-07-31T08:42:25.973Z,99885.06
2022-07-31T08:44:54.115Z,99883.81
2022-07-31T08:47:21.845Z,99884.88
2022-07-31T08:49:49.619Z,99887.16
2022-07-31T08:52:17.355Z,99887.34
2022-07-31T08:54:46.255Z,99886.06
2022-07-31T08:57:14.002Z,99893.84
2022-07-31T08:59:42.361Z,99899.13
2022-07-31T09:02:10.134Z,99893.47
2022-07-31T09:04:37.857Z,99908.81
2022-07-31T09:07:06.208Z,99907.59
2022-07-31T09:09:45.232Z,99908.88
2022-07-31T09:12:20.626Z,99895.94
2022-07-31T09:15:01.529Z,99903.28
2022-07-31T09:17:29.828Z,99907.06
2022-07-31T09:19:57.852Z,99895.75
2022-07-31T09:22:25.570Z,99896.41
2022-07-31T09:24:53.423Z,99889.44
2022-07-31T09:27:21.156Z,99894.91
2022-07-31T09:29:49.693Z,99899.31
2022-07-31T09:32:17.433Z,99897.44
2022-07-31T09:34:45.145Z,99895.78
2022-07-31T09:37:13.398Z,99892.44
2022-07-31T09:39:51.844Z,99894.09
2022-07-31T09:42:20.346Z,99899.53
2022-07-31T09:44:49.182Z,99897.00
2022-07-31T09:47:16.920Z,99905.16
2022-07-31T09:49:44.568Z,99889.44
2022-07-31T09:52:12.336Z,99887.38
2022-07-31T09:54:40.518Z,99889.84
2022-07-31T09:57:08.255Z,99894.03
2022-07-31T09:59:35.923Z,99893.22
2022-07-31T10:02:03.553Z,99902.03
2022-07-31T10:04:31.370Z,99893.84
2022-07-31T10:06:59.399Z,99904.75
2022-07-31T10:09:27.126Z,99902.44
2022-07-31T10:11:54.885Z,99901.59
2022-07-31T10:14:22.757Z,99903.88
2022-07-31T10:16:51.815Z,99902.44
2022-07-31T10:19:19.496Z,99900.34
2022-07-31T10:21:47.237Z,99904.72
2022-07-31T10:24:14.876Z,99899.91
2022-07-31T10:27:00.273Z,99891.06
2022-07-31T10:29:32.178Z,99898.59
2022-07-31T10:32:00.731Z,99895.03
2022-07-31T10:34:28.457Z,99894.16
2022-07-31T10:36:56.588Z,99878.88
2022-07-31T10:39:25.003Z,99881.41
2022-07-31T10:41:52.744Z,99872.97
2022-07-31T10:44:22.398Z,99872.97
2022-07-31T10:46:50.457Z,99875.41
2022-07-31T10:49:18.337Z,99877.25
2022-07-31T10:51:46.144Z,99875.78
2022-07-31T10:54:14.484Z,99871.78
2022-07-31T10:56:42.637Z,99875.34
2022-07-31T10:59:10.526Z,99871.94
2022-07-31T11:01:39.845Z,99868.94
2022-07-31T11:04:21.318Z,99864.28
2022-07-31T11:06:51.770Z,99862.47
2022-07-31T11:09:19.476Z,99862.75
2022-07-31T11:11:47.138Z,99854.09
2022-07-31T11:14:14.877Z,99862.13
2022-07-31T11:16:42.920Z,99850.00
2022-07-31T11:19:10.903Z,99858.28
2022-07-31T11:21:39.744Z,99859.50
2022-07-31T11:24:11.430Z,99848.34
2022-07-31T11:26:41.331Z,99857.38
2022-07-31T11:30:01.279Z,99864.66
2022-07-31T11:31:57.669Z,99854.50
2022-07-31T11:34:26.229Z,99857.47
2022-07-31T11:36:54.412Z,99856.09
2022-07-31T11:39:26.621Z,99844.88
2022-07-31T11:42:04.326Z,99856.00
2022-07-31T11:44:32.859Z,99846.25
2022-07-31T11:47:00.608Z,99851.69
2022-07-31T11:49:48.252Z,99843.59
2022-07-31T11:52:31.052Z,99844.56
2022-07-31T11:55:08.789Z,99846.34
2022-07-31T11:57:52.521Z,99839.50
2022-07-31T12:00:24.733Z,99828.72
2022-07-31T12:02:57.836Z,99840.09
2022-07-31T12:05:38.871Z,99841.16
2022-07-31T12:08:07.544Z,99835.75
2022-07-31T12:10:35.237Z,99830.19
2022-07-31T12:13:02.972Z,99833.16
2022-07-31T12:15:31.043Z,99827.00
2022-07-31T12:17:58.805Z,99834.91
2022-07-31T12:20:35.318Z,99834.81
2022-07-31T12:23:03.917Z,99838.50
2022-07-31T12:25:32.090Z,99841.13
2022-07-31T12:27:59.775Z,99834.25
2022-07-31T12:30:30.096Z,99839.94
2022-07-31T12:32:57.929Z,99836.72
2022-07-31T12:35:25.878Z,99840.28
2022-07-31T12:38:30.194Z,99839.19
2022-07-31T12:41:01.504Z,99838.06
2022-07-31T12:43:29.323Z,99835.66
2022-07-31T12:46:00.416Z,99829.78
2022-07-31T12:48:28.278Z,99830.22
2022-07-31T12:50:56.207Z,99825.00
2022-07-31T12:53:23.919Z,99825.25
2022-07-31T12:55:51.662Z,99831.78
2022-07-31T12:58:19.290Z,99837.91
2022-07-31T13:00:46.938Z,99830.19
2022-07-31T13:03:14.743Z,99831.72
2022-07-31T13:05:42.413Z,99828.06
2022-07-31T13:08:10.487Z,99832.75
2022-07-31T13:10:38.183Z,99823.50
2022-07-31T13:13:06.217Z,99830.59
2022-07-31T13:15:34.009Z,99819.59
2022-07-31T13:18:03.453Z,99816.13
2022-07-31T13:20:31.478Z,99809.66
2022-07-31T13:22:59.813Z,99806.34
2022-07-31T13:25:27.835Z,99803.59
2022-07-31T13:27:56.150Z,99789.50
2022-07-31T13:30:23.823Z,99792.19
2022-07-31T13:32:51.616Z,99787.25
2022-07-31T13:35:28.403Z,99786.00
2022-07-31T13:37:57.256Z,99782.28
2022-07-31T13:40:45.160Z,99776.91
2022-07-31T13:43:14.202Z,99779.44
2022-07-31T13:45:41.955Z,99776.22
2022-07-31T13:48:10.385Z,99774.69
2022-07-31T13:50:39.921Z,99781.97
2022-07-31T13:53:08.403Z,99771.94
2022-07-31T13:55:36.158Z,99768.00
2022-07-31T13:58:03.945Z,99773.13
2022-07-31T14:00:31.785Z,99773.34
2022-07-31T14:02:59.408Z,99769.50
2022-07-31T14:05:27.512Z,99761.28
2022-07-31T14:07:55.864Z,99761.94
2022-07-31T14:10:23.652Z,99770.00
2022-07-31T14:12:51.330Z,99772.28
2022-07-31T14:15:19.081Z,99764.53
2022-07-31T14:17:47.230Z,99761.09
2022-07-31T14:20:14.940Z,99758.06
2022-07-31T14:22:42.662Z,99753.22
2022-07-31T14:25:10.323Z,99747.75
2022-07-31T14:27:39.565Z,99750.38
2022-07-31T14:30:07.290Z,99747.28
2022-07-31T14:32:35.037Z,99749.09
2022-07-31T14:35:07.821Z,99743.97
2022-07-31T14:37:36.613Z,99746.09
2022-07-31T14:40:04.368Z,99740.28
2022-07-31T14:42:32.097Z,99754.66
2022-07-31T14:45:00.324Z,99753.84
2022-07-31T14:47:27.973Z,99753.47
2022-07-31T14:50:10.673Z,99753.06
2022-07-31T14:52:39.778Z,99751.59
2022-07-31T14:55:07.515Z,99747.16
2022-07-31T14:57:36.614Z,99743.13
2022-07-31T15:00:09.831Z,99743.69
2022-07-31T15:02:39.548Z,99743.84
2022-07-31T15:06:37.702Z,99745.50
2022-07-31T15:07:55.147Z,99734.41
2022-07-31T15:10:22.924Z,99736.06
2022-07-31T15:12:51.950Z,99736.34
2022-07-31T15:15:20.193Z,99729.13
2022-07-31T15:17:47.866Z,99726.38
2022-07-31T15:20:16.331Z,99726.56
2022-07-31T15:22:44.041Z,99726.19
2022-07-31T15:25:11.805Z,99735.84
2022-07-31T15:27:39.582Z,99729.44
2022-07-31T15:30:08.007Z,99729.47
2022-07-31T15:32:35.903Z,99723.25
2022-07-31T15:35:03.595Z,99715.69
2022-07-31T15:37:31.756Z,99714.41
2022-07-31T15:40:02.792Z,99709.91
2022-07-31T15:42:31.252Z,99707.69
2022-07-31T15:44:59.102Z,99697.72
2022-07-31T15:47:27.153Z,99682.34
2022-07-31T15:49:54.870Z,99678.97
2022-07-31T15:52:22.571Z,99674.22
2022-07-31T15:54:51.832Z,99673.13
2022-07-31T15:57:20.219Z,99668.22
2022-07-31T15:59:48.100Z,99669.31
2022-07-31T16:02:15.873Z,99670.38
2022-07-31T16:04:51.534Z,99675.47
2022-07-31T16:08:32.918Z,99665.84
2022-07-31T16:10:16.182Z,99662.34
2022-07-31T16:12:45.055Z,99665.19
2022-07-31T16:15:12.915Z,99672.16
2022-07-31T16:17:40.853Z,99664.66
2022-07-31T16:20:08.963Z,99669.28
2022-07-31T16:22:36.805Z,99666.28
2022-07-31T16:25:05.892Z,99674.78
2022-07-31T16:27:33.651Z,99688.31
2022-07-31T16:30:02.854Z,99697.06
2022-07-31T16:32:30.942Z,99705.03
2022-07-31T16:35:01.349Z,99691.63
2022-07-31T16:37:50.069Z,99694.06
2022-07-31T16:40:28.404Z,99695.69
2022-07-31T16:43:01.046Z,99697.22
2022-07-31T16:45:28.908Z,99685.97
2022-07-31T16:47:56.827Z,99676.38
2022-07-31T16:50:24.575Z,99680.19
2022-07-31T16:52:54.787Z,99672.53
2022-07-31T16:55:55.713Z,99676.97
2022-07-31T16:58:11.838Z,99675.53
2022-07-31T17:00:39.839Z,99663.59
2022-07-31T17:03:58.748Z,99657.91
2022-07-31T17:05:55.885Z,99663.50
2022-07-31T17:08:23.640Z,99657.03
2022-07-31T17:10:54.589Z,99654.94
2022-07-31T17:13:22.549Z,99649.53
2022-07-31T17:15:50.737Z,99655.84
2022-07-31T17:18:18.589Z,99653.56
2022-07-31T17:20:47.271Z,99651.25
2022-07-31T17:23:15.801Z,99654.19
2022-07-31T17:25:44.016Z,99652.13
2022-07-31T17:28:15.332Z,99643.56
2022-07-31T17:30:45.098Z,99643.34
2022-07-31T17:33:12.878Z,99637.50
2022-07-31T17:35:40.607Z,99648.78
2022-07-31T17:38:08.641Z,99647.34
2022-07-31T17:40:44.334Z,99651.09
2022-07-31T17:43:13.200Z,99647.97
2022-07-31T17:45:59.551Z,99655.72
2022-07-31T17:48:29.243Z,99652.19
2022-07-31T17:50:57.051Z,99645.06
2022-07-31T17:53:54.765Z,99654.91
2022-07-31T17:56:13.217Z,99646.34
2022-07-31T17:58:41.060Z,99654.94
2022-07-31T18:01:08.998Z,99657.44
2022-07-31T18:03:36.749Z,99680.03
2022-07-31T18:06:05.283Z,99705.75
2022-07-31T18:08:33.521Z,99716.22
2022-07-31T18:11:01.307Z,99724.50
2022-07-31T18:13:29.258Z,99712.44
2022-07-31T18:15:57.034Z,99720.81
2022-07-31T18:18:26.087Z,99724.22
2022-07-31T18:20:53.844Z,99726.81
2022-07-31T18:23:23.171Z,99732.09
2022-07-31T18:25:51.683Z,99733.28
2022-07-31T18:28:19.771Z,99724.25
2022-07-31T18:30:47.565Z,99725.69
2022-07-31T18:33:17.484Z,99730.84
2022-07-31T18:35:45.189Z,99730.84
2022-07-31T18:38:13.464Z,99728.72
2022-07-31T18:40:41.479Z,99721.41
2022-07-31T18:43:09.333Z,99737.66
2022-07-31T18:45:39.519Z,99748.91
2022-07-31T18:48:09.539Z,99759.75
2022-07-31T18:50:58.462Z,99771.56
2022-07-31T18:53:25.131Z,99768.53
2022-07-31T18:55:53.069Z,99771.72
2022-07-31T18:58:20.894Z,99773.22
2022-07-31T19:00:52.914Z,99770.84
2022-07-31T19:03:22.367Z,99774.47
2022-07-31T19:05:51.023Z,99769.00
2022-07-31T19:08:19.924Z,99769.34
2022-07-31T19:10:49.800Z,99762.47
2022-07-31T19:13:19.401Z,99773.47
2022-07-31T19:15:47.454Z,99773.66
2022-07-31T19:18:15.660Z,99772.84
2022-07-31T19:21:00.283Z,99769.28
2022-07-31T19:23:33.021Z,99769.75
2022-07-31T19:26:03.593Z,99772.28
2022-07-31T19:28:32.412Z,99776.00
2022-07-31T19:31:00.064Z,99768.34
2022-07-31T19:33:27.816Z,99767.31
2022-07-31T19:36:01.510Z,99773.56
2022-07-31T19:38:30.612Z,99778.97
2022-07-31T19:40:58.320Z,99777.94
2022-07-31T19:43:26.046Z,99773.19
2022-07-31T19:45:58.834Z,99771.78
2022-07-31T19:48:39.809Z,99780.34
2022-07-31T19:51:07.656Z,99798.09
2022-07-31T19:53:35.788Z,99788.66
2022-07-31T19:56:05.912Z,99780.75
2022-07-31T19:58:34.501Z,99792.78
2022-07-31T20:01:02.468Z,99792.13
2022-07-31T20:03:30.420Z,99793.16
2022-07-31T20:05:58.401Z,99793.16
2022-07-31T20:08:26.459Z,99793.16
2022-07-31T20:10:59.568Z,99804.81
2022-07-31T20:13:28.174Z,99798.59
2022-07-31T20:15:55.867Z,99793.16
2022-07-31T20:18:28.595Z,99802.97
2022-07-31T20:20:57.275Z,99800.25
2022-07-31T20:23:25.116Z,99804.44
2022-07-31T20:25:52.854Z,99807.81
2022-07-31T20:28:20.760Z,99803.88
2022-07-31T20:30:48.583Z,99805.16
2022-07-31T20:33:16.265Z,99808.34
2022-07-31T20:35:48.753Z,99810.88
2022-07-31T20:38:17.295Z,99810.47
2022-07-31T20:40:51.159Z,99807.41
2022-07-31T20:43:22.624Z,99808.03
2022-07-31T20:45:50.644Z,99808.03
2022-07-31T20:48:19.078Z,99808.03
2022-07-31T20:50:47.781Z,99810.75
2022-07-31T20:53:15.758Z,99802.00
2022-07-31T20:55:47.124Z,99801.78
2022-07-31T20:58:14.908Z,99801.13
2022-07-31T21:00:42.584Z,99804.69
2022-07-31T21:03:10.425Z,99795.91
2022-07-31T21:05:38.572Z,99804.03
2022-07-31T21:08:06.549Z,99808.81
2022-07-31T21:10:34.461Z,99806.09
2022-07-31T21:13:02.123Z,99815.88
2022-07-31T21:15:44.235Z,99809.66
2022-07-31T21:18:14.242Z,99814.03
2022-07-31T21:20:50.837Z,99813.19
2022-07-31T21:23:20.923Z,99809.66
2022-07-31T21:25:49.127Z,99807.94
2022-07-31T21:28:16.887Z,99814.22
2022-07-31T21:30:44.594Z,99820.47
2022-07-31T21:33:12.306Z,99811.31
2022-07-31T21:35:40.821Z,99814.84
2022-07-31T21:38:12.222Z,99822.16
2022-07-31T21:40:40.345Z,99815.88
2022-07-31T21:43:08.197Z,99828.38
2022-07-31T21:45:45.703Z,99826.72
2022-07-31T21:48:22.746Z,99820.66
2022-07-31T21:50:50.452Z,99823.38
2022-07-31T21:53:18.576Z,99816.47
2022-07-31T21:55:46.366Z,99822.91
2022-07-31T21:58:13.996Z,99829.53
2022-07-31T22:00:41.760Z,99822.84
2022-07-31T22:03:09.619Z,99823.38
2022-07-31T22:05:54.631Z,99821.91
2022-07-31T22:08:22.888Z,99833.09
2022-07-31T22:10:50.582Z,99829.44
2022-07-31T22:13:18.269Z,99828.53
2022-07-31T22:15:58.905Z,99826.59
2022-07-31T22:18:28.998Z,99826.75
2022-07-31T22:20:56.825Z,99826.94
2022-07-31T22:23:24.445Z,99821.91
2022-07-31T22:25:52.504Z,99829.56
2022-07-31T22:28:20.227Z,99820.97
2022-07-31T22:30:47.879Z,99830.13
2022-07-31T22:33:15.611Z,99831.34
2022-07-31T22:35:43.333Z,99837.78
2022-07-31T22:38:12.520Z,99834.22
2022-07-31T22:40:40.285Z,99835.06
2022-07-31T22:44:10.588Z,99833.19
2022-07-31T22:45:59.589Z,99836.09
2022-07-31T22:48:28.012Z,99831.34
2022-07-31T22:50:56.178Z,99835.72
2022-07-31T22:53:24.157Z,99827.44
2022-07-31T22:55:53.177Z,99836.19
2022-07-31T22:58:20.902Z,99836.00
2022-07-31T23:00:48.641Z,99842.06
2022-07-31T23:03:17.376Z,99832.09
2022-07-31T23:06:27.985Z,99831.88
2022-07-31T23:08:32.809Z,99841.69
2022-07-31T23:11:00.487Z,99834.41
2022-07-31T23:13:28.340Z,99833.38
2022-07-31T23:15:56.261Z,99838.50
2022-07-31T23:18:24.040Z,99836.19
2022-07-31T23:20:51.845Z,99835.53
2022-07-31T23:23:19.918Z,99834.03
2022-07-31T23:25:47.749Z,99845.88
2022-07-31T23:28:15.426Z,99839.63
2022-07-31T23:30:43.117Z,99841.28
2022-07-31T23:33:12.490Z,99844.00
2022-07-31T23:35:40.282Z,99850.09
2022-07-31T23:38:09.311Z,99841.97
2022-07-31T23:40:37.044Z,99851.75
2022-07-31T23:43:03.727Z,99840.94
2022-07-31T23:45:31.398Z,99841.97
2022-07-31T23:48:00.013Z,99836.75
2022-07-31T23:50:28.346Z,99847.56
2022-07-31T23:52:56.057Z,99835.06
2022-07-31T23:55:23.697Z,99838.13
2022-07-31T23:57:52.287Z,99836.66
